Time;durP1;ratioP1;P1;durP2;ratioP2;P2;SDS_P1;SDS_P2;PMS_P1;PMS_P2;Temp;Humidity;BMP_temperature;BMP_pressure;BME280_temperature;BME280_humidity;BME280_pressure;Samples;Min_cycle;Max_cycle;Signal;HPM_P1;HPM_P2
2021/12/28 00:01:28;;;;;;;37.88;21.00;;;9.30;48.00;;;;;;5010974;28;20022;-84
2021/12/28 00:03:54;;;;;;;38.95;21.58;;;9.30;48.50;;;;;;5078647;28;20022;-85
2021/12/28 00:06:20;;;;;;;41.40;22.77;;;9.10;48.60;;;;;;5078981;28;20033;-83
2021/12/28 00:08:47;;;;;;;40.35;22.00;;;8.80;49.30;;;;;;5010763;28;20028;-83
2021/12/28 00:11:13;;;;;;;38.33;20.27;;;8.40;49.70;;;;;;4723024;28;9999922;-84
2021/12/28 00:13:41;;;;;;;41.22;21.00;;;8.30;50.50;;;;;;5062517;28;20184;-84
2021/12/28 00:18:37;;;;;;;33.63;19.35;;;8.80;50.00;;;;;;4994845;28;20033;-86
2021/12/28 00:21:04;;;;;;;34.42;19.75;;;8.90;49.70;;;;;;5062246;28;20057;-84
2021/12/28 00:23:40;;;;;;;36.30;20.02;;;8.70;50.10;;;;;;4994503;28;20026;-84
2021/12/28 00:26:08;;;;;;;36.15;20.40;;;8.40;50.80;;;;;;5061933;28;20023;-83
2021/12/28 00:28:35;;;;;;;39.97;20.70;;;8.30;50.70;;;;;;4994616;28;20105;-83
2021/12/28 00:31:01;;;;;;;37.88;19.00;;;8.20;50.70;;;;;;5061627;28;20022;-85
2021/12/28 00:33:26;;;;;;;37.78;21.30;;;8.50;50.20;;;;;;5061831;28;20030;-83
2021/12/28 00:35:53;;;;;;;35.55;20.58;;;8.60;49.90;;;;;;5061189;28;20022;-85
2021/12/28 00:38:22;;;;;;;38.10;20.73;;;8.60;49.60;;;;;;5061181;28;20042;-83
2021/12/28 00:41:00;;;;;;;43.85;21.10;;;8.60;49.60;;;;;;5061229;28;20342;-84
2021/12/28 00:43:27;;;;;;;38.95;21.98;;;8.50;49.60;;;;;;5060592;28;20078;-83
2021/12/28 00:45:53;;;;;;;41.53;21.35;;;8.50;49.60;;;;;;5061112;28;20105;-83
2021/12/28 00:48:19;;;;;;;38.60;21.80;;;8.50;49.50;;;;;;4993858;28;20082;-83
2021/12/28 00:50:46;;;;;;;41.13;23.33;;;8.60;49.60;;;;;;5061652;28;20105;-83
2021/12/28 00:53:12;;;;;;;46.17;22.23;;;8.60;49.30;;;;;;4992311;28;20018;-82
2021/12/28 00:55:38;;;;;;;40.70;21.10;;;8.40;49.80;;;;;;5058592;28;20072;-83
2021/12/28 00:58:04;;;;;;;39.20;21.25;;;8.30;50.80;;;;;;5058856;28;20041;-83
2021/12/28 01:00:33;;;;;;;41.35;22.35;;;8.30;50.20;;;;;;4991935;28;20361;-83
2021/12/28 01:03:00;;;;;;;42.45;22.10;;;8.20;50.10;;;;;;4992824;28;20026;-82
2021/12/28 01:05:27;;;;;;;40.33;22.67;;;7.90;50.40;;;;;;4992381;28;20480;-83
2021/12/28 01:07:54;;;;;;;36.67;20.23;;;7.60;51.10;;;;;;4993392;28;20030;-82
2021/12/28 01:10:23;;;;;;;42.60;22.58;;;7.70;51.20;;;;;;5061161;28;20023;-82
2021/12/28 01:12:52;;;;;;;45.83;22.92;;;7.60;51.20;;;;;;5060993;28;20022;-84
2021/12/28 01:15:18;;;;;;;39.45;22.23;;;7.60;51.40;;;;;;5061069;28;20023;-82
2021/12/28 01:17:44;;;;;;;41.92;23.30;;;7.90;51.00;;;;;;4993132;28;20026;-82
2021/12/28 01:20:12;;;;;;;44.35;22.05;;;8.00;50.80;;;;;;5059917;28;20072;-83
2021/12/28 01:22:38;;;;;;;39.65;22.25;;;8.20;50.60;;;;;;5059865;28;20044;-82
2021/12/28 01:25:05;;;;;;;43.75;23.10;;;8.40;50.20;;;;;;4993068;28;20050;-83
2021/12/28 01:27:31;;;;;;;43.50;22.50;;;8.50;50.10;;;;;;5060304;28;20102;-82
2021/12/28 01:29:57;;;;;;;43.45;23.10;;;8.40;50.10;;;;;;5061399;28;20029;-81
2021/12/28 01:32:23;;;;;;;40.10;22.40;;;8.40;50.50;;;;;;5061051;28;20079;-82
2021/12/28 01:34:49;;;;;;;41.17;22.17;;;8.20;50.50;;;;;;4993243;28;20033;-82
2021/12/28 01:37:14;;;;;;;41.60;22.15;;;8.00;51.00;;;;;;5060352;28;20038;-82
2021/12/28 01:39:40;;;;;;;40.15;22.67;;;7.70;51.50;;;;;;5060667;28;20027;-82
2021/12/28 01:42:07;;;;;;;44.47;22.80;;;7.40;52.20;;;;;;5061063;28;20029;-82
2021/12/28 01:44:34;;;;;;;41.17;22.90;;;7.30;52.50;;;;;;5060156;28;20050;-82
2021/12/28 01:47:00;;;;;;;41.33;22.27;;;7.20;52.80;;;;;;4993276;28;20064;-82
2021/12/28 01:49:26;;;;;;;41.85;21.98;;;7.10;53.00;;;;;;4993696;28;20366;-82
2021/12/28 01:51:52;;;;;;;40.58;22.38;;;7.10;52.80;;;;;;4993653;28;20093;-82
2021/12/28 01:54:18;;;;;;;44.15;23.30;;;7.40;52.60;;;;;;4993055;28;20032;-82
2021/12/28 01:56:46;;;;;;;40.47;22.63;;;7.60;52.50;;;;;;5060757;28;20022;-83
2021/12/28 01:59:14;;;;;;;42.83;22.95;;;8.00;51.70;;;;;;4992731;28;20035;-82
2021/12/28 02:01:40;;;;;;;43.65;23.25;;;8.30;51.20;;;;;;4992823;28;20026;-82
2021/12/28 02:04:20;;;;;;;40.20;22.42;;;8.50;50.90;;;;;;4992530;28;20041;-82
2021/12/28 02:06:47;;;;;;;40.72;22.08;;;8.60;50.70;;;;;;4975304;28;20022;-82
2021/12/28 02:09:13;;;;;;;44.50;22.55;;;8.60;50.50;;;;;;4975432;28;20365;-82
2021/12/28 02:11:39;;;;;;;46.75;23.63;;;8.50;50.90;;;;;;4975250;28;20467;-82
2021/12/28 02:14:07;;;;;;;47.63;24.70;;;8.50;51.00;;;;;;4975244;28;20479;-81
2021/12/28 02:16:41;;;;;;;43.20;23.60;;;8.60;50.70;;;;;;4992681;28;20457;-81
2021/12/28 02:19:09;;;;;;;44.10;24.13;;;8.60;50.80;;;;;;4992671;28;20030;-83
2021/12/28 02:21:35;;;;;;;47.15;25.05;;;8.70;50.80;;;;;;4992393;28;20030;-82
2021/12/28 02:24:04;;;;;;;45.60;24.88;;;8.90;50.30;;;;;;4975125;28;20026;-82
2021/12/28 02:26:30;;;;;;;45.38;24.30;;;8.90;50.90;;;;;;4975064;28;20030;-82
2021/12/28 02:28:56;;;;;;;43.35;24.73;;;9.10;50.20;;;;;;4992306;28;20018;-82
2021/12/28 02:31:22;;;;;;;50.03;26.55;;;9.10;50.30;;;;;;4974802;28;20453;-83
2021/12/28 02:33:49;;;;;;;51.53;26.77;;;9.20;50.30;;;;;;4974960;28;20026;-82
2021/12/28 02:36:15;;;;;;;51.08;25.88;;;9.10;50.20;;;;;;4974934;28;20033;-82
2021/12/28 02:38:42;;;;;;;46.50;25.40;;;9.00;50.40;;;;;;4974637;28;20043;-81
2021/12/28 02:41:09;;;;;;;46.60;25.70;;;9.10;50.60;;;;;;4974769;28;20448;-82
2021/12/28 02:43:36;;;;;;;49.10;23.90;;;9.30;50.40;;;;;;4974885;28;20121;-82
2021/12/28 02:46:05;;;;;;;48.72;25.15;;;9.40;50.10;;;;;;4991932;28;20106;-82
2021/12/28 02:48:32;;;;;;;48.65;25.52;;;9.40;50.10;;;;;;4975090;28;20457;-82
2021/12/28 02:51:07;;;;;;;44.80;24.85;;;9.50;49.80;;;;;;4974832;28;20435;-83
2021/12/28 02:53:34;;;;;;;43.72;25.60;;;9.50;49.50;;;;;;4974663;28;20018;-84
2021/12/28 02:56:00;;;;;;;45.03;25.00;;;9.50;49.90;;;;;;4974752;28;20014;-84
2021/12/28 02:58:37;;;;;;;47.22;25.85;;;9.30;50.40;;;;;;4991857;28;20372;-82
2021/12/28 03:01:09;;;;;;;48.88;25.38;;;9.00;50.50;;;;;;4974457;28;20015;-83
2021/12/28 03:03:36;;;;;;;49.25;26.17;;;8.70;51.30;;;;;;4974518;28;20153;-82
2021/12/28 03:06:04;;;;;;;46.88;25.90;;;8.80;51.50;;;;;;5062818;28;20498;-82
2021/12/28 03:08:31;;;;;;;45.90;25.63;;;8.80;51.20;;;;;;5074138;28;20028;-82
2021/12/28 03:10:58;;;;;;;47.13;25.58;;;8.90;51.40;;;;;;5074220;28;20021;-83
2021/12/28 03:13:28;;;;;;;47.72;25.80;;;8.90;51.00;;;;;;5072240;28;20459;-83
2021/12/28 03:15:54;;;;;;;47.58;25.75;;;8.90;51.00;;;;;;5072701;28;20051;-82
2021/12/28 03:18:20;;;;;;;46.15;25.35;;;8.80;51.20;;;;;;5072430;28;20464;-82
2021/12/28 03:20:47;;;;;;;45.65;26.08;;;8.80;51.10;;;;;;5073340;28;20021;-82
2021/12/28 03:23:14;;;;;;;45.95;25.95;;;9.00;51.00;;;;;;5072689;28;20027;-82
2021/12/28 03:25:40;;;;;;;44.20;25.30;;;8.90;51.10;;;;;;5073460;28;20356;-83
2021/12/28 03:28:06;;;;;;;48.17;26.50;;;8.70;51.50;;;;;;5073334;28;20455;-83
2021/12/28 03:30:32;;;;;;;48.30;25.83;;;8.70;51.80;;;;;;5072431;28;20013;-82
2021/12/28 03:32:58;;;;;;;48.92;26.55;;;8.70;51.80;;;;;;5072298;28;20024;-82
2021/12/28 03:35:24;;;;;;;48.38;25.77;;;8.60;52.00;;;;;;5073332;28;20027;-82
2021/12/28 03:37:50;;;;;;;49.05;25.73;;;8.60;52.40;;;;;;5072265;28;20809;-82
2021/12/28 03:40:16;;;;;;;45.70;26.80;;;8.60;51.90;;;;;;5073254;28;20467;-81
2021/12/28 03:42:43;;;;;;;45.22;25.67;;;8.60;52.00;;;;;;5072155;28;20063;-82
2021/12/28 03:45:10;;;;;;;43.45;25.00;;;8.70;52.40;;;;;;5071661;28;20020;-81
2021/12/28 03:47:36;;;;;;;45.13;24.63;;;8.90;51.60;;;;;;5072160;28;20107;-82
2021/12/28 03:50:08;;;;;;;50.22;26.55;;;9.10;51.20;;;;;;5072004;28;20016;-81
2021/12/28 03:52:34;;;;;;;42.95;22.98;;;9.10;51.00;;;;;;5073371;28;20551;-81
2021/12/28 03:55:00;;;;;;;44.53;24.55;;;9.00;51.30;;;;;;5072197;28;20016;-81
2021/12/28 03:57:26;;;;;;;40.88;23.63;;;9.00;51.40;;;;;;5071979;28;20093;-82
2021/12/28 03:59:51;;;;;;;43.83;23.05;;;9.20;51.70;;;;;;5072941;28;20478;-81
2021/12/28 04:02:17;;;;;;;41.05;21.60;;;9.20;51.40;;;;;;5071946;28;20451;-82
2021/12/28 04:04:43;;;;;;;40.75;21.45;;;9.10;51.30;;;;;;5043113;28;20043;-82
2021/12/28 04:07:12;;;;;;;41.72;21.80;;;9.10;51.30;;;;;;4973742;28;20030;-82
2021/12/28 04:12:20;;;;;;;45.90;22.40;;;9.00;51.70;;;;;;4990834;28;20019;-84
2021/12/28 04:14:45;;;;;;;38.05;20.80;;;8.60;52.70;;;;;;4978887;28;20377;-82
2021/12/28 04:17:11;;;;;;;37.85;21.02;;;8.30;53.30;;;;;;4973565;28;20029;-82
2021/12/28 04:19:37;;;;;;;40.00;20.92;;;8.10;53.70;;;;;;4990633;28;20107;-81
2021/12/28 04:22:03;;;;;;;41.10;22.25;;;7.90;54.30;;;;;;4990797;28;20026;-81
2021/12/28 04:24:29;;;;;;;37.38;21.05;;;8.00;54.40;;;;;;4973518;28;20486;-81
2021/12/28 04:26:54;;;;;;;39.15;20.67;;;8.10;54.50;;;;;;4990591;28;20510;-81
2021/12/28 04:29:20;;;;;;;41.78;21.55;;;8.40;54.00;;;;;;4973260;28;20019;-83
2021/12/28 04:31:46;;;;;;;42.42;22.85;;;8.40;53.70;;;;;;4973394;28;20075;-83
2021/12/28 04:34:11;;;;;;;37.42;21.02;;;8.50;53.70;;;;;;4990745;28;20018;-84
2021/12/28 04:36:38;;;;;;;41.08;23.08;;;8.30;53.70;;;;;;4973156;28;20377;-81
2021/12/28 04:39:05;;;;;;;40.40;22.17;;;8.10;54.10;;;;;;4973234;28;20039;-81
2021/12/28 04:41:31;;;;;;;41.22;22.05;;;8.20;54.10;;;;;;4973186;28;20159;-82
2021/12/28 04:44:00;;;;;;;43.70;22.60;;;8.40;53.80;;;;;;4990347;28;20101;-82
2021/12/28 04:46:26;;;;;;;43.15;23.00;;;8.50;53.70;;;;;;4973131;28;20033;-82
2021/12/28 04:48:52;;;;;;;47.45;23.92;;;8.30;53.90;;;;;;4973082;28;20014;-81
2021/12/28 04:51:18;;;;;;;46.92;22.65;;;8.40;54.10;;;;;;4972868;28;20042;-81
2021/12/28 04:53:44;;;;;;;43.80;23.40;;;8.50;53.80;;;;;;4973107;28;20025;-82
2021/12/28 04:56:10;;;;;;;46.05;23.25;;;8.70;53.00;;;;;;4973512;28;20029;-83
2021/12/28 04:58:35;;;;;;;44.85;22.85;;;8.50;53.30;;;;;;4976083;28;20465;-81
2021/12/28 05:01:01;;;;;;;47.35;24.45;;;8.40;53.80;;;;;;4976343;28;20026;-82
2021/12/28 05:03:27;;;;;;;45.20;23.77;;;8.20;54.10;;;;;;4993525;28;20030;-83
2021/12/28 05:05:53;;;;;;;46.65;23.70;;;8.20;53.90;;;;;;4993152;28;20056;-80
2021/12/28 05:08:21;;;;;;;47.92;24.17;;;8.10;54.30;;;;;;4976095;28;20030;-81
2021/12/28 05:10:48;;;;;;;41.92;23.58;;;8.20;53.90;;;;;;4976119;28;20019;-81
2021/12/28 05:13:14;;;;;;;42.50;23.58;;;8.20;53.80;;;;;;4976029;28;20028;-87
2021/12/28 05:15:44;;;;;;;42.15;23.58;;;8.00;53.70;;;;;;4975888;28;20023;-81
2021/12/28 05:18:11;;;;;;;42.97;23.17;;;7.90;54.30;;;;;;4976007;28;20052;-80
2021/12/28 05:20:37;;;;;;;43.08;23.42;;;7.90;54.20;;;;;;4975877;28;20026;-81
2021/12/28 05:23:04;;;;;;;43.22;23.42;;;7.70;54.40;;;;;;4993325;28;20053;-81
2021/12/28 05:25:30;;;;;;;41.08;23.25;;;7.60;54.80;;;;;;4993038;28;20014;-80
2021/12/28 05:27:56;;;;;;;41.80;23.58;;;7.70;54.50;;;;;;4993704;28;20026;-81
2021/12/28 05:30:22;;;;;;;40.30;23.90;;;7.60;54.70;;;;;;4975908;28;20114;-81
2021/12/28 05:32:48;;;;;;;42.63;22.95;;;7.50;54.70;;;;;;4975822;28;20067;-80
2021/12/28 05:35:14;;;;;;;42.75;22.73;;;7.50;54.60;;;;;;4975507;28;20461;-81
2021/12/28 05:37:40;;;;;;;43.85;23.80;;;7.30;55.00;;;;;;4975621;28;20038;-80
2021/12/28 05:40:10;;;;;;;44.05;23.92;;;6.90;55.20;;;;;;4993052;28;20022;-80
2021/12/28 05:42:36;;;;;;;48.17;24.38;;;7.00;55.50;;;;;;4975654;28;20011;-81
2021/12/28 05:45:02;;;;;;;50.30;24.85;;;6.70;55.60;;;;;;4992837;28;20045;-80
2021/12/28 05:47:28;;;;;;;44.00;24.63;;;6.60;55.90;;;;;;4975702;28;20030;-81
2021/12/28 05:49:54;;;;;;;44.85;25.10;;;6.60;56.30;;;;;;4992949;28;20026;-80
2021/12/28 05:52:19;;;;;;;47.28;25.63;;;6.60;56.10;;;;;;4992723;28;20026;-81
2021/12/28 05:54:45;;;;;;;43.90;25.30;;;6.60;56.30;;;;;;4975537;28;20018;-80
2021/12/28 05:57:11;;;;;;;43.45;23.90;;;6.60;56.30;;;;;;4975446;28;20030;-80
2021/12/28 05:59:37;;;;;;;49.75;25.42;;;6.70;56.00;;;;;;4975216;28;20025;-81
2021/12/28 06:02:03;;;;;;;48.70;25.50;;;6.70;56.00;;;;;;4975437;28;20018;-80
2021/12/28 06:04:29;;;;;;;46.58;24.33;;;6.90;55.80;;;;;;4992394;28;20034;-80
2021/12/28 06:06:55;;;;;;;50.45;25.75;;;7.20;55.70;;;;;;4975233;28;20517;-80
2021/12/28 06:09:20;;;;;;;44.17;25.00;;;7.10;55.70;;;;;;4992099;28;20026;-80
2021/12/28 06:11:46;;;;;;;43.03;23.90;;;6.80;55.90;;;;;;4992741;28;20027;-80
2021/12/28 06:14:12;;;;;;;49.47;25.00;;;6.50;57.10;;;;;;4975212;28;20041;-80
2021/12/28 06:16:38;;;;;;;45.53;24.70;;;6.40;58.10;;;;;;4974799;28;20026;-80
2021/12/28 06:19:05;;;;;;;45.05;23.85;;;6.70;57.20;;;;;;4992547;28;20384;-80
2021/12/28 06:21:31;;;;;;;46.30;24.58;;;6.90;57.20;;;;;;4992460;28;20025;-81
2021/12/28 06:24:01;;;;;;;45.90;24.38;;;7.20;57.50;;;;;;4992528;28;20030;-84
2021/12/28 06:26:29;;;;;;;48.72;24.95;;;7.50;56.40;;;;;;4975175;28;20490;-92
2021/12/28 06:28:55;;;;;;;47.45;24.55;;;7.30;57.00;;;;;;4974952;28;20575;-82
2021/12/28 06:31:21;;;;;;;51.67;25.30;;;7.10;57.20;;;;;;4992060;28;20101;-84
2021/12/28 06:33:46;;;;;;;52.45;27.13;;;7.10;58.00;;;;;;4974782;28;20022;-81
2021/12/28 06:36:12;;;;;;;49.65;25.83;;;7.30;57.10;;;;;;4990797;28;20021;-91
2021/12/28 06:38:38;;;;;;;50.85;25.05;;;7.20;57.70;;;;;;4991964;28;20034;-79
2021/12/28 06:41:06;;;;;;;54.80;25.55;;;7.20;58.50;;;;;;4974905;28;20022;-81
2021/12/28 06:43:31;;;;;;;54.28;27.45;;;7.50;59.10;;;;;;4989772;28;20490;-82
2021/12/28 06:45:57;;;;;;;50.28;25.38;;;7.70;58.00;;;;;;5011528;28;20030;-79
2021/12/28 06:48:29;;;;;;;58.17;25.88;;;7.90;57.50;;;;;;4996124;28;20030;-82
2021/12/28 06:50:55;;;;;;;57.42;27.75;;;8.10;56.60;;;;;;4970875;28;20035;-81
2021/12/28 06:53:21;;;;;;;55.50;26.55;;;8.00;56.50;;;;;;4996146;28;20074;-82
2021/12/28 06:55:46;;;;;;;57.53;27.52;;;8.00;57.00;;;;;;4974643;28;20022;-82
2021/12/28 06:58:12;;;;;;;68.63;29.48;;;8.20;56.60;;;;;;4974580;28;20099;-81
2021/12/28 07:00:39;;;;;;;64.22;28.35;;;8.20;56.30;;;;;;4975003;28;20026;-84
2021/12/28 07:03:06;;;;;;;58.58;27.83;;;8.10;56.90;;;;;;4975128;28;20446;-82
2021/12/28 07:05:32;;;;;;;55.10;28.00;;;8.20;56.80;;;;;;5043667;28;20105;-82
2021/12/28 07:07:57;;;;;;;56.80;27.85;;;8.00;57.10;;;;;;5092599;28;20079;-81
2021/12/28 07:10:23;;;;;;;57.28;27.63;;;8.10;57.30;;;;;;5089480;28;20103;-89
2021/12/28 07:12:51;;;;;;;53.13;26.50;;;8.30;56.90;;;;;;5093245;28;20378;-81
2021/12/28 07:15:18;;;;;;;51.33;25.73;;;8.40;56.50;;;;;;5075453;28;20115;-83
2021/12/28 07:17:44;;;;;;;53.53;26.05;;;8.50;56.40;;;;;;5072627;28;20430;-81
2021/12/28 07:20:11;;;;;;;51.88;25.75;;;8.50;56.40;;;;;;5069881;28;20487;-83
2021/12/28 07:22:37;;;;;;;51.72;25.15;;;8.40;56.40;;;;;;4722010;28;10000016;-80
2021/12/28 07:25:03;;;;;;;53.55;26.60;;;8.50;56.80;;;;;;5084473;28;20119;-85
2021/12/28 07:27:29;;;;;;;53.65;24.40;;;8.60;56.50;;;;;;5089142;28;20023;-81
2021/12/28 07:29:55;;;;;;;48.80;24.38;;;8.50;57.00;;;;;;5076161;28;20029;-82
2021/12/28 07:32:20;;;;;;;57.45;26.90;;;8.40;57.40;;;;;;5071524;28;20039;-82
2021/12/28 07:34:46;;;;;;;54.90;25.48;;;8.20;57.60;;;;;;5071217;28;20032;-84
2021/12/28 07:37:12;;;;;;;50.83;24.10;;;8.30;57.90;;;;;;5071219;28;20016;-82
2021/12/28 07:39:39;;;;;;;60.55;26.23;;;8.30;58.10;;;;;;5063389;28;20464;-80
2021/12/28 07:42:05;;;;;;;57.80;28.00;;;8.50;57.50;;;;;;5058491;28;20031;-82
2021/12/28 07:44:31;;;;;;;59.10;27.42;;;8.70;57.20;;;;;;5071257;28;20494;-82
2021/12/28 07:46:57;;;;;;;60.70;28.13;;;8.70;57.00;;;;;;5070026;28;20037;-84
2021/12/28 07:49:23;;;;;;;54.20;25.17;;;8.80;56.80;;;;;;5070295;28;20028;-81
2021/12/28 07:51:49;;;;;;;57.38;25.60;;;8.80;57.20;;;;;;5071748;28;20512;-83
2021/12/28 07:54:14;;;;;;;54.45;26.17;;;8.70;57.10;;;;;;5065577;28;20036;-83
2021/12/28 07:56:40;;;;;;;57.70;26.23;;;8.90;57.00;;;;;;5062315;28;20033;-81
2021/12/28 07:59:07;;;;;;;58.28;25.00;;;9.00;57.20;;;;;;5071785;28;20083;-82
2021/12/28 08:01:34;;;;;;;60.55;28.27;;;9.10;56.60;;;;;;5072313;28;20021;-82
2021/12/28 08:04:00;;;;;;;58.95;26.10;;;9.10;57.10;;;;;;5072610;28;20032;-83
2021/12/28 08:06:26;;;;;;;54.03;25.58;;;8.90;56.60;;;;;;5071013;28;20051;-82
2021/12/28 08:08:51;;;;;;;56.28;26.05;;;8.60;57.30;;;;;;5071620;28;20108;-85
2021/12/28 08:11:17;;;;;;;54.50;26.30;;;8.60;57.60;;;;;;5071271;28;20066;-85
2021/12/28 08:13:43;;;;;;;51.20;25.55;;;8.50;57.50;;;;;;5067609;28;20029;-84
2021/12/28 08:16:08;;;;;;;51.60;25.77;;;8.50;58.20;;;;;;5073352;28;20070;-88
2021/12/28 08:18:34;;;;;;;53.03;26.73;;;8.40;58.20;;;;;;5072064;28;20570;-83
2021/12/28 08:21:00;;;;;;;50.83;25.35;;;8.50;57.90;;;;;;5071884;28;20086;-87
2021/12/28 08:23:26;;;;;;;56.75;24.52;;;8.40;57.40;;;;;;5071541;28;20127;-84
2021/12/28 08:25:51;;;;;;;49.75;24.08;;;8.40;57.50;;;;;;5071868;28;20021;-87
2021/12/28 08:28:17;;;;;;;49.67;25.33;;;8.00;57.90;;;;;;5071714;28;20545;-82
2021/12/28 08:30:43;;;;;;;51.13;25.60;;;8.00;58.60;;;;;;5080205;28;20490;-88
2021/12/28 08:33:10;;;;;;;53.10;26.20;;;8.20;58.10;;;;;;5096319;28;20387;-87
2021/12/28 08:35:39;;;;;;;49.13;24.58;;;8.10;58.30;;;;;;5092630;28;20028;-88
2021/12/28 08:38:06;;;;;;;50.13;24.73;;;8.10;58.50;;;;;;5076920;28;20086;-82
2021/12/28 08:40:32;;;;;;;46.05;24.85;;;7.90;58.60;;;;;;5074919;28;20771;-81
2021/12/28 08:42:58;;;;;;;52.78;25.25;;;7.90;59.00;;;;;;5076876;28;20399;-82
2021/12/28 08:45:24;;;;;;;50.35;24.95;;;8.10;58.80;;;;;;5075938;28;20413;-84
2021/12/28 08:48:25;;;;;;;44.15;23.52;;;7.90;59.40;;;;;;5304065;22;20032;-87
2021/12/28 08:50:50;;;;;;;48.30;25.60;;;7.80;59.40;;;;;;4954264;28;20073;-84
2021/12/28 08:53:16;;;;;;;55.15;26.58;;;7.80;59.40;;;;;;4973217;28;20023;-85
2021/12/28 08:55:42;;;;;;;47.00;24.80;;;8.20;58.90;;;;;;4974554;28;20034;-84
2021/12/28 08:58:08;;;;;;;47.65;25.35;;;8.30;58.00;;;;;;4957177;28;20030;-90
2021/12/28 09:00:36;;;;;;;48.83;25.55;;;8.60;57.40;;;;;;4974683;28;20031;-84
2021/12/28 09:03:03;;;;;;;47.92;25.83;;;8.70;57.30;;;;;;4956913;28;20446;-84
2021/12/28 09:05:29;;;;;;;51.85;26.13;;;8.60;56.90;;;;;;4972783;28;20033;-84
2021/12/28 09:07:56;;;;;;;49.58;26.67;;;8.60;56.90;;;;;;4956236;28;20030;-89
2021/12/28 09:10:25;;;;;;;46.08;25.95;;;8.60;57.20;;;;;;4956419;28;20031;-83
2021/12/28 09:16:33;;;;;;;47.17;24.90;;;8.70;56.80;;;;;;4975600;28;20108;-88
2021/12/28 09:18:58;;;;;;;45.85;25.70;;;8.70;56.70;;;;;;4959633;28;20121;-85
2021/12/28 09:21:24;;;;;;;44.33;24.60;;;8.70;56.70;;;;;;4959372;28;20524;-85
2021/12/28 09:23:50;;;;;;;49.05;26.17;;;8.30;57.00;;;;;;4959154;28;20022;-85
2021/12/28 09:26:15;;;;;;;47.67;25.42;;;8.00;57.70;;;;;;4959445;28;20517;-84
2021/12/28 09:28:41;;;;;;;48.20;26.35;;;8.10;58.20;;;;;;4959438;28;20154;-91
2021/12/28 09:31:07;;;;;;;48.38;25.85;;;8.60;57.40;;;;;;4975283;28;20525;-85
2021/12/28 09:33:33;;;;;;;48.10;25.40;;;8.70;56.60;;;;;;4959248;28;20334;-84
2021/12/28 09:36:00;;;;;;;46.58;24.55;;;8.80;56.60;;;;;;4959231;28;20382;-85
2021/12/28 09:38:26;;;;;;;43.80;25.25;;;8.40;57.00;;;;;;4958949;28;20049;-92
2021/12/28 09:40:52;;;;;;;55.58;28.30;;;8.20;57.40;;;;;;4975197;28;20039;-85
2021/12/28 09:43:19;;;;;;;48.95;27.13;;;7.80;58.00;;;;;;4958352;28;20023;-90
2021/12/28 09:45:45;;;;;;;47.88;27.67;;;7.70;58.70;;;;;;4975184;28;20146;-85
2021/12/28 09:48:11;;;;;;;49.75;27.25;;;8.10;58.60;;;;;;4959341;28;20031;-85
2021/12/28 09:50:41;;;;;;;51.92;27.52;;;8.20;58.30;;;;;;4956975;28;20092;-86
2021/12/28 09:53:09;;;;;;;52.35;28.65;;;8.20;58.30;;;;;;4956942;28;20125;-85
2021/12/28 09:55:34;;;;;;;56.15;31.10;;;8.40;58.30;;;;;;4956674;28;20019;-85
2021/12/28 09:58:00;;;;;;;64.55;32.00;;;8.30;58.30;;;;;;4956535;28;20034;-93
2021/12/28 10:00:27;;;;;;;56.78;31.40;;;8.20;58.30;;;;;;4956727;28;20023;-85
2021/12/28 10:02:53;;;;;;;54.92;30.73;;;8.00;59.10;;;;;;4956565;28;20504;-85
2021/12/28 10:05:23;;;;;;;51.63;28.05;;;8.00;58.80;;;;;;4973902;28;20397;-92
2021/12/28 10:07:56;;;;;;;43.75;24.95;;;7.80;59.20;;;;;;4956732;28;20027;-84
2021/12/28 10:10:23;;;;;;;47.92;26.63;;;7.70;60.10;;;;;;4265730;28;10000690;-90
2021/12/28 10:12:53;;;;;;;46.65;25.95;;;7.80;59.70;;;;;;4954151;28;20019;-92
2021/12/28 10:15:22;;;;;;;46.65;25.60;;;8.20;59.10;;;;;;4954574;29;20030;-88
2021/12/28 10:17:50;;;;;;;48.50;26.17;;;8.20;58.50;;;;;;4937610;28;20027;-89
2021/12/28 10:20:23;;;;;;;47.83;25.15;;;8.20;59.10;;;;;;4937886;28;20031;-91
2021/12/28 10:22:58;;;;;;;49.40;27.30;;;8.30;59.00;;;;;;4937498;28;20051;-92
2021/12/28 10:25:30;;;;;;;49.97;26.42;;;8.30;58.50;;;;;;4937683;28;20077;-84
2021/12/28 10:28:19;;;;;;;49.60;26.92;;;8.20;58.40;;;;;;4954952;28;20542;-85
2021/12/28 10:30:52;;;;;;;49.40;27.65;;;8.20;58.10;;;;;;4938267;29;20458;-92
2021/12/28 10:33:24;;;;;;;51.95;27.02;;;8.40;58.20;;;;;;4940584;28;20033;-86
2021/12/28 10:35:50;;;;;;;48.83;27.23;;;8.60;58.30;;;;;;4938984;28;20034;-91
2021/12/28 10:38:20;;;;;;;53.03;28.70;;;8.60;57.60;;;;;;4938276;28;20043;-94
2021/12/28 10:40:52;;;;;;;55.28;29.55;;;8.30;57.90;;;;;;4937588;28;20031;-86
2021/12/28 10:43:30;;;;;;;54.80;30.15;;;8.30;58.20;;;;;;4937791;28;20382;-93
2021/12/28 10:46:05;;;;;;;54.55;30.15;;;8.40;58.00;;;;;;4954353;28;20472;-92
2021/12/28 10:48:35;;;;;;;55.75;29.60;;;8.50;57.70;;;;;;4937045;28;20390;-93
2021/12/28 10:51:14;;;;;;;46.35;22.85;;;8.70;57.80;;;;;;4938442;28;20031;-85
2021/12/28 10:54:02;;;;;;;56.97;29.42;;;8.50;57.50;;;;;;4936891;28;20027;-86
2021/12/28 10:56:30;;;;;;;55.83;29.10;;;8.20;58.20;;;;;;4937029;28;20038;-92
2021/12/28 10:58:56;;;;;;;53.50;27.88;;;7.90;58.80;;;;;;4937328;28;20045;-85
2021/12/28 11:01:32;;;;;;;54.55;29.27;;;7.90;59.10;;;;;;4938066;28;20113;-91
2021/12/28 11:04:07;;;;;;;51.58;27.92;;;7.70;59.40;;;;;;4937527;28;20034;-88
2021/12/28 11:06:36;;;;;;;53.78;29.30;;;7.60;59.70;;;;;;4936580;28;20474;-90
2021/12/28 11:09:10;;;;;;;55.03;28.60;;;7.60;59.60;;;;;;4937022;28;20027;-85
2021/12/28 11:11:36;;;;;;;53.67;28.88;;;7.60;59.60;;;;;;4938374;28;20058;-87
2021/12/28 11:14:08;;;;;;;51.05;27.65;;;7.60;60.40;;;;;;4939455;28;20023;-86
2021/12/28 11:16:34;;;;;;;53.55;28.85;;;7.80;60.10;;;;;;4939904;28;20019;-85
2021/12/28 11:19:06;;;;;;;53.40;28.73;;;8.10;59.00;;;;;;4937088;28;20059;-86
2021/12/28 11:21:35;;;;;;;53.30;28.45;;;8.10;58.80;;;;;;4938318;28;20089;-89
2021/12/28 11:24:07;;;;;;;55.65;27.55;;;8.30;58.40;;;;;;4938416;28;20538;-89
2021/12/28 11:26:50;;;;;;;56.33;29.17;;;8.20;58.60;;;;;;4936497;28;20019;-86
2021/12/28 11:29:32;;;;;;;54.53;29.13;;;8.10;58.70;;;;;;4936105;28;20023;-92
2021/12/28 11:32:16;;;;;;;57.97;30.00;;;8.40;58.30;;;;;;4936508;28;20051;-93
2021/12/28 11:34:42;;;;;;;55.13;29.33;;;7.90;59.10;;;;;;4936492;28;20023;-87
2021/12/28 11:37:17;;;;;;;59.28;31.20;;;7.70;60.00;;;;;;4936612;29;20110;-86
2021/12/28 11:39:46;;;;;;;60.78;29.92;;;7.80;60.30;;;;;;4935950;28;20031;-86
2021/12/28 11:42:14;;;;;;;63.35;30.85;;;8.10;58.90;;;;;;4937133;28;20432;-92
2021/12/28 11:44:41;;;;;;;63.17;31.85;;;8.10;59.00;;;;;;4938521;28;20023;-85
2021/12/28 11:47:09;;;;;;;62.25;30.20;;;8.00;59.30;;;;;;4930440;28;20062;-85
2021/12/28 11:49:37;;;;;;;63.85;32.72;;;8.30;59.30;;;;;;4936325;28;20042;-88
2021/12/28 11:52:06;;;;;;;63.08;31.08;;;8.20;59.30;;;;;;4936142;28;20054;-86
2021/12/28 11:54:38;;;;;;;62.53;31.10;;;8.30;59.70;;;;;;4936736;28;20060;-86
2021/12/28 11:57:20;;;;;;;70.07;33.50;;;8.30;59.50;;;;;;4937098;28;20081;-87
2021/12/28 11:59:56;;;;;;;67.05;31.58;;;8.00;60.10;;;;;;4936163;28;20089;-87
2021/12/28 12:02:36;;;;;;;69.18;33.10;;;7.60;60.60;;;;;;4936661;28;20505;-94
2021/12/28 12:05:15;;;;;;;73.20;33.17;;;7.20;62.30;;;;;;4936321;28;20114;-86
2021/12/28 12:07:42;;;;;;;67.15;30.33;;;7.00;63.10;;;;;;4939570;28;20043;-85
2021/12/28 12:10:29;;;;;;;71.20;33.17;;;7.10;63.10;;;;;;4939390;28;20035;-86
2021/12/28 12:12:58;;;;;;;71.20;33.88;;;7.00;63.30;;;;;;4939640;28;20039;-88
2021/12/28 12:15:33;;;;;;;65.72;31.73;;;7.00;63.70;;;;;;4939050;28;20065;-86
2021/12/28 12:18:02;;;;;;;69.60;31.88;;;7.20;63.30;;;;;;4939074;28;20067;-92
2021/12/28 12:20:34;;;;;;;67.68;34.03;;;7.40;63.00;;;;;;4938801;28;20372;-86
2021/12/28 12:23:08;;;;;;;70.32;32.88;;;7.50;63.00;;;;;;4938946;28;20034;-90
2021/12/28 12:25:49;;;;;;;73.90;31.83;;;7.70;62.80;;;;;;4938674;28;20031;-92
2021/12/28 12:28:19;;;;;;;66.70;30.60;;;7.70;62.50;;;;;;4938693;28;20035;-92
2021/12/28 12:30:51;;;;;;;73.60;33.20;;;7.40;63.20;;;;;;4938790;28;20118;-87
2021/12/28 12:33:18;;;;;;;66.32;31.60;;;7.50;63.20;;;;;;4938434;28;20062;-86
2021/12/28 12:35:58;;;;;;;69.88;31.85;;;7.60;63.30;;;;;;4939266;28;20118;-91
2021/12/28 12:38:26;;;;;;;73.40;33.85;;;7.50;63.10;;;;;;4938580;28;20035;-91
2021/12/28 12:41:06;;;;;;;74.68;34.30;;;7.40;63.40;;;;;;4938516;28;20054;-89
2021/12/28 12:43:40;;;;;;;75.63;33.30;;;7.40;63.70;;;;;;4938893;28;20355;-91
2021/12/28 12:46:20;;;;;;;67.72;31.42;;;7.30;64.00;;;;;;4938470;28;20031;-88
2021/12/28 12:52:16;;;;;;;63.92;30.02;;;7.40;63.80;;;;;;4955494;29;20084;-88